createdAt,value
2023-02-18T00:01:01.930Z,103067.84
2023-02-18T00:03:41.386Z,103066.63
2023-02-18T00:06:40.350Z,103069.97
2023-02-18T00:09:28.116Z,103076.81
2023-02-18T00:12:03.174Z,103070.53
2023-02-18T00:18:01.011Z,103059.13
2023-02-18T00:20:50.317Z,103063.22
2023-02-18T00:23:44.156Z,103054.50
2023-02-18T00:26:46.460Z,103049.91
2023-02-18T00:29:14.944Z,103053.13
2023-02-18T00:32:03.103Z,103053.78
2023-02-18T00:34:45.494Z,103052.13
2023-02-18T00:37:59.970Z,103044.13
2023-02-18T00:40:46.221Z,103044.31
2023-02-18T00:43:37.352Z,103038.75
2023-02-18T00:46:15.351Z,103042.94
2023-02-18T00:48:56.892Z,103035.19
2023-02-18T00:51:33.793Z,103032.25
2023-02-18T00:54:31.911Z,103032.16
2023-02-18T00:57:04.948Z,103029.63
2023-02-18T00:59:54.998Z,103024.00
2023-02-18T01:02:24.234Z,103031.63
2023-02-18T01:04:54.894Z,103026.75
2023-02-18T01:07:22.299Z,103030.09
2023-02-18T01:09:49.995Z,103024.00
2023-02-18T01:12:17.863Z,103026.41
2023-02-18T01:14:47.737Z,103025.72
2023-02-18T01:17:25.285Z,103025.78
2023-02-18T01:20:07.377Z,103016.91
2023-02-18T01:22:42.012Z,103019.53
2023-02-18T01:25:13.824Z,103017.47
2023-02-18T01:27:46.140Z,103013.16
2023-02-18T01:30:19.975Z,103017.03
2023-02-18T01:32:47.565Z,103018.16
2023-02-18T01:35:24.362Z,103009.81
2023-02-18T01:37:57.572Z,103007.34
2023-02-18T01:40:32.082Z,103000.50
2023-02-18T01:43:03.036Z,103000.19
2023-02-18T01:45:39.825Z,102998.34
2023-02-18T01:48:21.063Z,103000.75
2023-02-18T01:50:55.059Z,102997.41
2023-02-18T01:53:31.508Z,103005.38
2023-02-18T01:56:06.846Z,102999.09
2023-02-18T01:58:39.860Z,102995.84
2023-02-18T02:01:26.871Z,102992.47
2023-02-18T02:04:11.110Z,102989.97
2023-02-18T02:06:54.124Z,102990.03
2023-02-18T02:09:35.663Z,102997.44
2023-02-18T02:12:37.456Z,102993.28
2023-02-18T02:15:34.117Z,102984.91
2023-02-18T02:18:29.303Z,102993.28
2023-02-18T02:21:18.341Z,102991.72
2023-02-18T02:24:16.760Z,102994.31
2023-02-18T02:27:24.922Z,102990.66
2023-02-18T02:31:00.791Z,102990.91
2023-02-18T02:33:40.491Z,102986.75
2023-02-18T02:36:52.612Z,102979.53
2023-02-18T02:40:06.105Z,102976.84
2023-02-18T02:43:06.402Z,102976.72
2023-02-18T02:46:18.336Z,102978.91
2023-02-18T02:49:05.065Z,102974.84
2023-02-18T02:52:06.164Z,102979.25
2023-02-18T02:54:46.468Z,102977.22
2023-02-18T02:57:55.557Z,102973.13
2023-02-18T03:01:15.425Z,102975.59
2023-02-18T03:04:32.115Z,102968.16
2023-02-18T03:10:47.159Z,102968.06
2023-02-18T03:14:00.241Z,102969.94
2023-02-18T03:16:52.577Z,102974.97
2023-02-18T03:19:38.188Z,102962.94
2023-02-18T03:25:19.154Z,102961.88
2023-02-18T03:28:19.070Z,102959.44
2023-02-18T03:31:11.547Z,102959.19
2023-02-18T03:34:14.774Z,102962.53
2023-02-18T03:36:46.487Z,102960.63
2023-02-18T03:39:46.091Z,102961.09
2023-02-18T03:42:37.206Z,102961.34
2023-02-18T03:45:06.072Z,102959.41
2023-02-18T03:47:35.519Z,102952.13
2023-02-18T03:50:13.789Z,102946.94
2023-02-18T03:52:45.351Z,102958.13
2023-02-18T03:55:13.920Z,102958.31
2023-02-18T03:57:41.373Z,102960.81
2023-02-18T04:00:13.152Z,102957.84
2023-02-18T04:02:41.065Z,102950.16
2023-02-18T04:05:09.122Z,102950.75
2023-02-18T04:07:36.822Z,102956.06
2023-02-18T04:10:07.479Z,102950.50
2023-02-18T04:12:38.133Z,102949.78
2023-02-18T04:15:08.869Z,102946.03
2023-02-18T04:17:44.109Z,102945.13
2023-02-18T04:20:12.331Z,102944.22
2023-02-18T04:22:40.136Z,102950.16
2023-02-18T04:25:10.242Z,102943.13
2023-02-18T04:27:40.392Z,102946.53
2023-02-18T04:30:20.466Z,102946.38
2023-02-18T04:32:47.981Z,102940.72
2023-02-18T04:35:30.621Z,102948.53
2023-02-18T04:37:58.085Z,102945.13
2023-02-18T04:40:35.412Z,102940.94
2023-02-18T04:43:05.670Z,102954.81
2023-02-18T04:45:33.084Z,102947.03
2023-02-18T04:48:00.511Z,102944.13
2023-02-18T04:50:28.220Z,102949.25
2023-02-18T04:52:55.575Z,102938.75
2023-02-18T04:55:23.897Z,102948.34
2023-02-18T04:57:54.221Z,102946.72
2023-02-18T05:00:48.255Z,102946.66
2023-02-18T05:03:18.154Z,102948.34
2023-02-18T05:06:04.350Z,102944.13
2023-02-18T05:08:45.677Z,102944.03
2023-02-18T05:11:17.083Z,102942.81
2023-02-18T05:13:53.232Z,102952.66
2023-02-18T05:16:26.408Z,102949.25
2023-02-18T05:19:21.122Z,102946.41
2023-02-18T05:21:58.071Z,102952.91
2023-02-18T05:24:37.267Z,102950.16
2023-02-18T05:30:15.545Z,102959.56
2023-02-18T05:32:49.459Z,102968.78
2023-02-18T05:35:25.665Z,102971.91
2023-02-18T05:38:00.180Z,102967.94
2023-02-18T05:40:34.574Z,102974.59
2023-02-18T05:43:09.170Z,102977.28
2023-02-18T05:45:50.004Z,102974.69
2023-02-18T05:48:32.211Z,102972.31
2023-02-18T05:54:08.905Z,102967.63
2023-02-18T05:56:58.551Z,102965.47
2023-02-18T05:59:41.440Z,102968.34
2023-02-18T06:02:19.856Z,102972.06
2023-02-18T06:04:57.368Z,102978.25
2023-02-18T06:07:30.967Z,102970.28
2023-02-18T06:10:05.997Z,102966.94
2023-02-18T06:12:38.231Z,102977.31
2023-02-18T06:15:24.864Z,102976.31
2023-02-18T06:18:01.517Z,102977.22
2023-02-18T06:20:34.440Z,102972.13
2023-02-18T06:23:01.925Z,102969.44
2023-02-18T06:25:32.438Z,102968.53
2023-02-18T06:28:22.421Z,102977.94
2023-02-18T06:30:51.410Z,102971.22
2023-02-18T06:33:24.750Z,102979.81
2023-02-18T06:36:09.921Z,102980.97
2023-02-18T06:38:49.189Z,102986.81
2023-02-18T06:50:29.846Z,103007.25
2023-02-18T06:53:00.656Z,103017.97
2023-02-18T06:58:35.084Z,103017.72
2023-02-18T07:01:25.430Z,103025.34
2023-02-18T07:04:01.459Z,103024.06
2023-02-18T07:06:36.568Z,103030.53
2023-02-18T07:09:13.183Z,103040.53
2023-02-18T07:11:53.154Z,103037.00
2023-02-18T07:14:30.346Z,103041.91
2023-02-18T07:20:19.040Z,103039.03
2023-02-18T07:23:00.389Z,103045.31
2023-02-18T07:25:36.246Z,103047.81
2023-02-18T07:28:12.640Z,103051.59
2023-02-18T07:30:53.471Z,103049.81
2023-02-18T07:33:32.791Z,103050.41
2023-02-18T07:36:02.364Z,103047.09
2023-02-18T07:38:37.214Z,103050.00
2023-02-18T07:41:33.490Z,103048.91
2023-02-18T07:44:14.249Z,103057.09
2023-02-18T07:46:54.743Z,103061.69
2023-02-18T07:49:33.959Z,103062.84
2023-02-18T07:52:11.846Z,103060.97
2023-02-18T07:54:51.830Z,103063.09
2023-02-18T07:57:22.552Z,103066.75
2023-02-18T08:00:10.829Z,103069.88
2023-02-18T08:03:06.080Z,103059.69
2023-02-18T08:05:40.056Z,103061.28
2023-02-18T08:08:37.422Z,103057.00
2023-02-18T08:11:18.949Z,103063.81
2023-02-18T08:14:02.279Z,103060.59
2023-02-18T08:16:33.154Z,103052.41
2023-02-18T08:19:34.605Z,103060.75
2023-02-18T08:22:05.045Z,103061.97
2023-02-18T08:24:48.960Z,103063.94
2023-02-18T08:27:16.315Z,103053.34
2023-02-18T08:29:45.111Z,103056.69
2023-02-18T08:32:17.945Z,103067.38
2023-02-18T08:34:53.230Z,103063.84
2023-02-18T08:37:27.974Z,103061.59
2023-02-18T08:42:40.594Z,103065.69
2023-02-18T08:45:11.413Z,103060.72
2023-02-18T08:48:17.041Z,103068.06
2023-02-18T08:50:35.664Z,103056.69
2023-02-18T08:53:05.636Z,103050.91
2023-02-18T08:55:40.545Z,103044.63
2023-02-18T08:58:11.120Z,103045.50
2023-02-18T09:00:44.248Z,103047.06
2023-02-18T09:03:18.705Z,103052.66
2023-02-18T09:05:54.890Z,103053.41
2023-02-18T09:08:22.086Z,103060.63
2023-02-18T09:11:05.016Z,103054.91
2023-02-18T09:13:41.699Z,103057.50
2023-02-18T09:16:21.011Z,103057.88
2023-02-18T09:19:01.634Z,103058.28
2023-02-18T09:21:35.270Z,103058.47
2023-02-18T09:24:02.637Z,103052.16
2023-02-18T09:29:10.793Z,103050.16
2023-02-18T09:31:43.913Z,103049.13
2023-02-18T09:34:21.503Z,103051.63
2023-02-18T09:36:49.340Z,103057.72
2023-02-18T09:39:18.263Z,103058.53
2023-02-18T09:41:55.339Z,103062.56
2023-02-18T09:44:35.581Z,103062.31
2023-02-18T09:47:50.156Z,103061.38
2023-02-18T09:50:42.946Z,103061.06
2023-02-18T09:53:15.434Z,103060.88
2023-02-18T09:55:46.767Z,103062.47
2023-02-18T09:58:25.588Z,103058.41
2023-02-18T10:01:05.223Z,103058.06
2023-02-18T10:03:33.000Z,103057.72
2023-02-18T10:06:34.615Z,103053.00
2023-02-18T10:09:15.583Z,103054.13
2023-02-18T10:12:12.670Z,103054.56
2023-02-18T10:15:17.445Z,103054.50
2023-02-18T10:18:13.484Z,103049.78
2023-02-18T10:20:41.695Z,103050.69
2023-02-18T10:23:23.169Z,103047.34
2023-02-18T10:25:51.755Z,103042.09
2023-02-18T10:28:29.965Z,103039.09
2023-02-18T10:31:05.827Z,103035.47
2023-02-18T10:33:51.062Z,103031.31
2023-02-18T10:36:40.295Z,103032.78
2023-02-18T10:39:34.911Z,103035.03
2023-02-18T10:42:59.396Z,103033.69
2023-02-18T10:46:12.116Z,103032.97
2023-02-18T10:48:56.978Z,103029.56
2023-02-18T10:51:33.869Z,103032.38
2023-02-18T10:54:15.377Z,103029.06
2023-02-18T11:00:07.517Z,103015.47
2023-02-18T11:02:38.929Z,103021.88
2023-02-18T11:05:35.295Z,103020.25
2023-02-18T11:11:26.485Z,103006.38
2023-02-18T11:14:04.628Z,103008.06
2023-02-18T11:16:54.089Z,103005.41
2023-02-18T11:19:39.478Z,103003.53
2023-02-18T11:22:32.289Z,103000.25
2023-02-18T11:25:36.645Z,102989.75
2023-02-18T11:28:31.997Z,102982.56
2023-02-18T11:31:20.229Z,102987.13
2023-02-18T11:34:02.948Z,102979.22
2023-02-18T11:36:36.309Z,102971.00
2023-02-18T11:39:35.303Z,102966.00
2023-02-18T11:42:11.786Z,102953.72
2023-02-18T11:45:10.753Z,102953.72
2023-02-18T11:47:43.732Z,102949.34
2023-02-18T11:50:22.938Z,102936.97
2023-02-18T11:53:12.292Z,102932.53
2023-02-18T11:56:09.624Z,102938.75
2023-02-18T11:58:46.107Z,102923.63
2023-02-18T12:01:37.873Z,102923.53
2023-02-18T12:04:30.293Z,102910.03
2023-02-18T12:07:33.940Z,102907.47
2023-02-18T12:10:30.806Z,102901.03
2023-02-18T12:13:17.188Z,102903.47
2023-02-18T12:16:27.669Z,102895.56
2023-02-18T12:19:47.479Z,102899.81
2023-02-18T12:22:39.127Z,102888.84
2023-02-18T12:25:48.042Z,102880.09
2023-02-18T12:29:36.161Z,102870.97
2023-02-18T12:32:34.138Z,102868.94
2023-02-18T12:35:32.206Z,102861.59
2023-02-18T12:41:51.847Z,102845.97
2023-02-18T12:45:20.644Z,102845.03
2023-02-18T12:48:44.324Z,102840.44
2023-02-18T12:51:17.108Z,102834.56
2023-02-18T12:54:11.291Z,102831.25
2023-02-18T12:56:59.546Z,102833.25
2023-02-18T13:00:05.328Z,102831.25
2023-02-18T13:03:47.274Z,102824.22
2023-02-18T13:06:45.573Z,102818.72
2023-02-18T13:09:59.014Z,102812.47
2023-02-18T13:12:44.180Z,102812.25
2023-02-18T13:16:14.445Z,102810.84
2023-02-18T13:18:56.747Z,102803.78
2023-02-18T13:21:30.626Z,102788.75
2023-02-18T13:24:40.197Z,102784.34
2023-02-18T13:27:56.191Z,102783.94
2023-02-18T13:33:48.025Z,102782.16
2023-02-18T13:36:53.817Z,102780.06
2023-02-18T13:39:58.522Z,102766.34
2023-02-18T13:42:39.373Z,102765.06
2023-02-18T13:45:54.340Z,102762.28
2023-02-18T13:48:48.156Z,102763.38
2023-02-18T13:52:04.951Z,102758.06
2023-02-18T13:55:01.076Z,102751.00
2023-02-18T13:57:57.503Z,102745.63
2023-02-18T14:00:47.542Z,102742.16
2023-02-18T14:04:01.136Z,102735.78
2023-02-18T14:06:38.714Z,102741.56
2023-02-18T14:09:12.720Z,102733.47
2023-02-18T14:12:20.000Z,102734.47
2023-02-18T14:14:59.121Z,102724.03
2023-02-18T14:18:10.867Z,102717.59
2023-02-18T14:20:41.480Z,102717.44
2023-02-18T14:23:40.320Z,102724.31
2023-02-18T14:26:18.624Z,102718.66
2023-02-18T14:29:26.254Z,102711.47
2023-02-18T14:32:15.679Z,102707.75
2023-02-18T14:34:59.266Z,102709.25
2023-02-18T14:37:59.895Z,102712.00
2023-02-18T14:47:48.480Z,102695.38
2023-02-18T14:50:34.843Z,102697.38
2023-02-18T14:53:47.984Z,102697.16
2023-02-18T14:56:38.632Z,102685.22
2023-02-18T14:59:17.174Z,102681.38
2023-02-18T15:02:08.544Z,102686.63
2023-02-18T15:05:41.064Z,102675.84
2023-02-18T15:08:41.117Z,102690.31
2023-02-18T15:11:27.234Z,102674.25
2023-02-18T15:14:28.157Z,102673.50
2023-02-18T15:17:03.668Z,102668.22
2023-02-18T15:23:29.393Z,102666.06
2023-02-18T15:26:20.291Z,102669.09
2023-02-18T15:32:22.082Z,102667.69
2023-02-18T15:35:24.101Z,102669.47
2023-02-18T15:38:32.492Z,102659.31
2023-02-18T15:41:07.645Z,102657.00
2023-02-18T15:44:15.675Z,102649.84
2023-02-18T15:46:46.592Z,102648.91
2023-02-18T15:49:36.331Z,102652.88
2023-02-18T15:53:04.401Z,102645.38
2023-02-18T15:55:41.286Z,102637.91
2023-02-18T15:58:21.863Z,102645.47
2023-02-18T16:01:04.517Z,102647.34
2023-02-18T16:03:52.504Z,102644.38
2023-02-18T16:06:49.166Z,102655.59
2023-02-18T16:10:09.856Z,102638.81
2023-02-18T16:12:55.210Z,102634.41
2023-02-18T16:15:49.401Z,102631.06
2023-02-18T16:18:32.614Z,102631.81
2023-02-18T16:21:13.618Z,102644.69
2023-02-18T16:24:03.717Z,102643.41
2023-02-18T16:26:53.918Z,102628.13
2023-02-18T16:30:20.194Z,102646.44
2023-02-18T16:32:50.503Z,102636.72
2023-02-18T16:35:32.795Z,102646.31
2023-02-18T16:38:27.847Z,102642.19
2023-02-18T16:41:35.284Z,102642.31
2023-02-18T16:44:15.892Z,102650.03
2023-02-18T16:46:49.445Z,102651.03
2023-02-18T16:49:43.436Z,102648.47
2023-02-18T16:52:20.383Z,102645.19
2023-02-18T16:54:57.759Z,102645.59
2023-02-18T16:57:30.222Z,102648.31
2023-02-18T17:00:15.574Z,102643.31
2023-02-18T17:03:21.478Z,102652.41
2023-02-18T17:05:58.016Z,102651.06
2023-02-18T17:08:29.896Z,102656.06
2023-02-18T17:11:29.366Z,102659.09
2023-02-18T17:14:12.753Z,102662.06
2023-02-18T17:20:01.163Z,102659.88
2023-02-18T17:22:40.714Z,102667.19
2023-02-18T17:25:41.090Z,102669.00
2023-02-18T17:28:42.941Z,102675.97
2023-02-18T17:31:35.629Z,102674.25
2023-02-18T17:34:08.031Z,102674.28
2023-02-18T17:40:21.633Z,102681.34
2023-02-18T17:42:50.401Z,102690.13
2023-02-18T17:45:30.224Z,102695.47
2023-02-18T17:48:38.224Z,102690.25
2023-02-18T17:51:11.717Z,102693.84
2023-02-18T17:53:39.056Z,102706.28
2023-02-18T17:56:19.291Z,102706.47
2023-02-18T17:59:00.828Z,102724.03
2023-02-18T18:01:31.929Z,102720.84
2023-02-18T18:04:13.126Z,102724.13
2023-02-18T18:06:40.471Z,102727.69
2023-02-18T18:09:14.024Z,102729.31
2023-02-18T18:11:45.633Z,102741.59
2023-02-18T18:14:24.067Z,102734.06
2023-02-18T18:16:56.345Z,102738.53
2023-02-18T18:19:34.118Z,102737.75
2023-02-18T18:22:04.522Z,102733.78
2023-02-18T18:24:38.250Z,102737.50
2023-02-18T18:27:09.866Z,102735.47
2023-02-18T18:29:46.175Z,102728.81
2023-02-18T18:32:23.949Z,102736.44
2023-02-18T18:34:58.121Z,102737.47
2023-02-18T18:37:28.556Z,102738.19
2023-02-18T18:39:55.779Z,102738.63
2023-02-18T18:42:23.149Z,102744.38
2023-02-18T18:44:50.482Z,102740.75
2023-02-18T18:47:23.043Z,102742.88
2023-02-18T18:49:59.521Z,102741.19
2023-02-18T18:52:32.914Z,102739.13
2023-02-18T18:55:07.469Z,102739.06
2023-02-18T18:57:47.265Z,102745.38
2023-02-18T19:00:20.185Z,102741.00
2023-02-18T19:02:51.126Z,102743.38
2023-02-18T19:05:41.311Z,102743.41
2023-02-18T19:08:13.130Z,102742.72
2023-02-18T19:10:50.807Z,102743.81
2023-02-18T19:13:22.684Z,102736.84
2023-02-18T19:16:01.997Z,102737.91
2023-02-18T19:18:35.653Z,102743.06
2023-02-18T19:21:16.949Z,102746.28
2023-02-18T19:23:50.239Z,102747.91
2023-02-18T19:29:22.456Z,102744.41
2023-02-18T19:31:53.988Z,102748.59
2023-02-18T19:37:23.477Z,102755.25
2023-02-18T19:40:05.788Z,102754.09
2023-02-18T19:42:53.391Z,102765.66
2023-02-18T19:45:21.931Z,102760.47
2023-02-18T19:48:07.969Z,102764.38
2023-02-18T19:51:03.731Z,102756.81
2023-02-18T19:53:38.802Z,102757.06
2023-02-18T19:56:13.721Z,102758.53
2023-02-18T19:58:57.771Z,102754.06
2023-02-18T20:04:42.567Z,102761.75
2023-02-18T20:07:23.054Z,102757.47
2023-02-18T20:12:42.006Z,102759.25
2023-02-18T20:15:20.676Z,102762.91
2023-02-18T20:18:01.425Z,102760.31
2023-02-18T20:20:39.941Z,102763.84
2023-02-18T20:26:15.189Z,102767.44
2023-02-18T20:28:43.837Z,102762.94
2023-02-18T20:31:23.748Z,102767.81
2023-02-18T20:33:56.439Z,102769.63
2023-02-18T20:36:33.978Z,102773.13
2023-02-18T20:39:15.796Z,102765.38
2023-02-18T20:41:54.988Z,102778.41
2023-02-18T20:44:36.325Z,102769.38
2023-02-18T20:47:25.700Z,102768.38
2023-02-18T20:52:53.418Z,102771.66
2023-02-18T20:58:20.633Z,102767.31
2023-02-18T21:01:05.808Z,102764.69
2023-02-18T21:03:54.832Z,102764.59
2023-02-18T21:06:30.990Z,102766.31
2023-02-18T21:12:30.601Z,102766.81
2023-02-18T21:15:55.638Z,102765.03
2023-02-18T21:18:32.032Z,102763.81
2023-02-18T21:21:11.791Z,102755.91
2023-02-18T21:23:51.392Z,102766.28
2023-02-18T21:32:55.166Z,102754.31
2023-02-18T21:35:30.489Z,102758.72
2023-02-18T21:38:05.648Z,102746.41
2023-02-18T21:40:45.009Z,102746.19
2023-02-18T21:43:24.927Z,102746.31
2023-02-18T21:46:32.795Z,102750.44
2023-02-18T21:49:28.527Z,102750.28
2023-02-18T21:52:23.344Z,102746.84
2023-02-18T21:55:15.276Z,102752.06
2023-02-18T21:57:56.758Z,102752.84
2023-02-18T22:03:25.920Z,102757.88
2023-02-18T22:05:57.024Z,102757.88
2023-02-18T22:08:35.256Z,102750.88
2023-02-18T22:11:08.574Z,102756.00
2023-02-18T22:13:41.961Z,102760.34
2023-02-18T22:16:12.041Z,102755.00
2023-02-18T22:18:59.899Z,102749.38
2023-02-18T22:21:37.526Z,102758.19
2023-02-18T22:24:11.311Z,102754.63
2023-02-18T22:26:51.529Z,102759.75
2023-02-18T22:29:30.703Z,102752.53
2023-02-18T22:35:29.659Z,102760.81
2023-02-18T22:38:10.849Z,102759.72
2023-02-18T22:47:51.488Z,102747.44
2023-02-18T22:53:06.662Z,102741.28
2023-02-18T22:55:50.093Z,102750.75
2023-02-18T22:58:26.403Z,102752.34
2023-02-18T23:03:56.043Z,102745.28
2023-02-18T23:06:33.868Z,102740.00
2023-02-18T23:09:12.909Z,102741.63
2023-02-18T23:11:43.172Z,102743.16
2023-02-18T23:14:27.587Z,102745.72
2023-02-18T23:17:15.420Z,102741.94
2023-02-18T23:19:57.104Z,102740.03
2023-02-18T23:22:52.625Z,102734.59
2023-02-18T23:25:29.971Z,102736.19
2023-02-18T23:28:30.052Z,102743.34
2023-02-18T23:31:01.004Z,102744.78
2023-02-18T23:37:02.902Z,102738.47
2023-02-18T23:39:46.137Z,102740.28
2023-02-18T23:42:18.094Z,102736.69
2023-02-18T23:44:56.434Z,102734.84
2023-02-18T23:47:24.101Z,102730.31
2023-02-18T23:49:57.252Z,102727.84
2023-02-18T23:52:36.164Z,102721.38
2023-02-18T23:55:25.534Z,102723.16
2023-02-18T23:57:55.165Z,102715.13
